Time;durP1;ratioP1;P1;durP2;ratioP2;P2;SDS_P1;SDS_P2;PMS_P1;PMS_P2;Temp;Humidity;BMP_temperature;BMP_pressure;BME280_temperature;BME280_humidity;BME280_pressure;Samples;Min_cycle;Max_cycle;Signal;HPM_P1;HPM_P2
2023/08/27 00:02:33;;;;;;;7.40;3.28;;;;;;;18.28;100.00;99261.31;12222326;19;20035;-85
2023/08/27 00:06:35;;;;;;;6.75;3.70;;;;;;;18.29;100.00;99268.50;12196393;19;20017;-85
2023/08/27 00:10:37;;;;;;;6.35;2.92;;;;;;;18.26;100.00;99253.22;12220077;19;20010;-85
2023/08/27 00:14:38;;;;;;;7.30;3.50;;;;;;;18.28;100.00;99241.78;12219728;19;20015;-85
2023/08/27 00:18:40;;;;;;;10.10;4.22;;;;;;;18.26;100.00;99219.75;12197988;19;20011;-85
2023/08/27 00:22:42;;;;;;;15.52;4.28;;;;;;;18.22;100.00;99225.16;12217499;19;20006;-85
2023/08/27 00:26:44;;;;;;;10.88;4.20;;;;;;;18.21;100.00;99229.09;12215289;19;20299;-85
2023/08/27 00:30:46;;;;;;;9.50;3.58;;;;;;;18.18;100.00;99243.66;12195704;19;20011;-85
2023/08/27 00:34:49;;;;;;;7.15;3.63;;;;;;;18.14;100.00;99250.16;12216297;19;20002;-85
2023/08/27 00:38:51;;;;;;;7.80;3.85;;;;;;;18.17;100.00;99246.75;12214372;19;20568;-85
2023/08/27 00:42:52;;;;;;;7.88;3.70;;;;;;;18.15;100.00;99243.47;12192229;19;20010;-85
2023/08/27 00:46:54;;;;;;;9.65;3.83;;;;;;;18.15;100.00;99240.69;12213321;19;20010;-85
2023/08/27 00:50:57;;;;;;;8.63;4.30;;;;;;;18.15;100.00;99243.47;12195571;19;20006;-85
2023/08/27 00:55:01;;;;;;;7.25;4.10;;;;;;;18.13;100.00;99246.56;12210202;19;20031;-85
2023/08/27 00:59:03;;;;;;;8.32;3.63;;;;;;;18.13;100.00;99242.97;12211869;19;20306;-85
2023/08/27 01:03:05;;;;;;;7.78;3.72;;;;;;;18.14;100.00;99241.81;12188339;19;20407;-85
2023/08/27 01:07:14;;;;;;;12.07;3.65;;;;;;;18.11;100.00;99254.41;12210006;19;20018;-85
2023/08/27 01:11:34;;;;;;;8.63;3.90;;;;;;;18.10;100.00;99258.34;12214159;19;20018;-85
2023/08/27 01:15:36;;;;;;;9.38;4.40;;;;;;;18.11;100.00;99261.94;12188204;19;20533;-85
2023/08/27 01:19:39;;;;;;;7.63;3.65;;;;;;;18.13;100.00;99260.50;12212000;19;19999;-85
2023/08/27 01:23:41;;;;;;;8.15;3.78;;;;;;;18.16;100.00;99251.50;12213127;19;20497;-86
2023/08/27 01:27:50;;;;;;;8.53;4.17;;;;;;;18.19;100.00;99236.94;12188942;19;20014;-85
2023/08/27 01:32:11;;;;;;;8.05;4.57;;;;;;;18.18;100.00;99235.31;12210781;19;20807;-85
2023/08/27 01:36:13;;;;;;;9.75;4.43;;;;;;;18.18;100.00;99229.72;12188326;19;20025;-85
2023/08/27 01:40:17;;;;;;;6.93;3.40;;;;;;;18.19;100.00;99231.38;12214720;19;20582;-85
2023/08/27 01:44:19;;;;;;;6.15;3.63;;;;;;;18.18;100.00;99234.47;12213812;19;20010;-85
2023/08/27 01:48:21;;;;;;;9.27;4.00;;;;;;;18.20;100.00;99235.81;12192073;19;20014;-85
2023/08/27 01:52:23;;;;;;;8.65;4.47;;;;;;;18.21;100.00;99228.28;12216095;19;20026;-85
2023/08/27 01:56:25;;;;;;;7.15;4.18;;;;;;;18.24;100.00;99216.50;12213020;19;20725;-85
2023/08/27 02:00:26;;;;;;;11.18;4.45;;;;;;;18.22;100.00;99211.22;12191748;19;20026;-85
2023/08/27 02:04:30;;;;;;;8.70;3.42;;;;;;;18.22;100.00;99207.59;12211962;19;20080;-85
2023/08/27 02:08:31;;;;;;;6.53;3.65;;;;;;;18.24;100.00;99207.31;12210477;19;20755;-85
2023/08/27 02:12:34;;;;;;;10.38;4.07;;;;;;;18.21;100.00;99219.91;12186153;19;20015;-85
2023/08/27 02:16:37;;;;;;;8.50;4.28;;;;;;;18.17;100.00;99214.16;12213207;19;20086;-85
2023/08/27 02:20:43;;;;;;;6.45;4.00;;;;;;;18.12;100.00;99182.75;12210894;19;20510;-85
2023/08/27 02:24:45;;;;;;;8.93;4.28;;;;;;;18.08;100.00;99179.75;12188726;19;20027;-85
2023/08/27 02:28:47;;;;;;;9.83;4.53;;;;;;;18.04;100.00;99170.38;12209233;19;20036;-85
2023/08/27 02:32:48;;;;;;;10.82;3.92;;;;;;;18.01;100.00;99168.22;12215609;19;20924;-85
2023/08/27 02:36:53;;;;;;;8.82;4.40;;;;;;;18.02;100.00;99181.03;12185931;19;20025;-85
2023/08/27 02:40:55;;;;;;;10.93;4.70;;;;;;;18.00;100.00;99200.03;12207622;19;20002;-85
2023/08/27 02:44:57;;;;;;;8.23;3.93;;;;;;;17.97;100.00;99197.88;12186651;19;20015;-85
2023/08/27 02:48:59;;;;;;;10.48;4.60;;;;;;;17.98;100.00;99210.69;12209468;19;20877;-85
2023/08/27 02:53:01;;;;;;;9.53;4.10;;;;;;;17.95;100.00;99186.22;12208867;19;20786;-85
2023/08/27 02:57:03;;;;;;;8.07;4.10;;;;;;;17.97;100.00;99178.38;12187477;19;20259;-85
2023/08/27 03:01:05;;;;;;;7.13;4.10;;;;;;;17.95;100.00;99183.44;12210363;19;20030;-84
2023/08/27 03:05:08;;;;;;;9.00;4.22;;;;;;;17.94;100.00;99184.56;12218342;19;20035;-85
2023/08/27 03:09:10;;;;;;;8.27;4.15;;;;;;;17.92;100.00;99170.94;12187840;19;19999;-85
2023/08/27 03:13:12;;;;;;;9.38;4.85;;;;;;;17.91;100.00;99180.44;12211392;19;20010;-85
2023/08/27 03:17:14;;;;;;;8.13;4.40;;;;;;;17.89;100.00;99181.91;12209254;19;20010;-85
2023/08/27 03:21:16;;;;;;;7.32;4.30;;;;;;;17.84;100.00;99179.22;12187302;19;20011;-85
2023/08/27 03:25:18;;;;;;;9.95;4.68;;;;;;;17.85;100.00;99186.47;12219532;19;20640;-85
2023/08/27 03:29:21;;;;;;;7.00;4.53;;;;;;;17.81;100.00;99174.28;12217810;19;20007;-85
2023/08/27 03:33:25;;;;;;;11.52;4.65;;;;;;;17.77;100.00;99186.03;12200378;19;20031;-85
2023/08/27 03:37:27;;;;;;;9.02;4.63;;;;;;;17.75;100.00;99188.28;12219740;19;20082;-85
2023/08/27 03:41:29;;;;;;;8.52;4.88;;;;;;;17.73;100.00;99185.00;12218782;19;20062;-85
2023/08/27 03:45:31;;;;;;;7.00;4.38;;;;;;;17.75;100.00;99166.00;12197167;19;20046;-85
2023/08/27 03:49:32;;;;;;;8.40;5.22;;;;;;;17.75;100.00;99185.50;12219861;19;20014;-85
2023/08/27 03:53:36;;;;;;;8.43;5.85;;;;;;;17.67;100.00;99179.88;12218968;19;20077;-86
2023/08/27 03:57:38;;;;;;;9.35;4.38;;;;;;;17.63;100.00;99174.06;12195495;19;20006;-85
2023/08/27 04:01:40;;;;;;;7.82;4.28;;;;;;;17.59;100.00;99175.84;12218796;19;20014;-84
2023/08/27 04:05:42;;;;;;;10.40;4.50;;;;;;;17.59;100.00;99175.03;12216210;19;20007;-85
2023/08/27 04:09:44;;;;;;;8.98;5.00;;;;;;;17.57;100.00;99161.38;12195733;19;20010;-85
2023/08/27 04:13:45;;;;;;;10.63;5.00;;;;;;;17.59;100.00;99186.16;12218426;19;20011;-85
2023/08/27 04:17:47;;;;;;;8.18;5.13;;;;;;;17.56;100.00;99184.00;12218899;19;20003;-85
2023/08/27 04:21:49;;;;;;;8.30;6.15;;;;;;;17.49;100.00;99148.19;12197247;19;20006;-85
2023/08/27 04:25:52;;;;;;;11.60;4.82;;;;;;;17.51;100.00;99137.56;12217510;19;20668;-85
2023/08/27 04:29:53;;;;;;;;;;;;;;;17.48;100.00;99139.00;12211943;19;20343;-85
2023/08/27 04:33:55;;;;;;;8.05;5.60;;;;;;;17.48;100.00;99140.97;12219099;19;19911;-85
2023/08/27 04:37:57;;;;;;;10.27;5.80;;;;;;;17.45;100.00;99138.81;12212457;19;20006;-85
2023/08/27 04:41:59;;;;;;;10.77;6.60;;;;;;;17.40;100.00;99150.91;12195600;19;20007;-85
2023/08/27 04:46:01;;;;;;;11.03;6.00;;;;;;;17.39;100.00;99159.56;12214977;19;20003;-85
2023/08/27 04:50:03;;;;;;;9.00;5.30;;;;;;;17.39;100.00;99174.31;12214938;19;20688;-85
2023/08/27 04:54:05;;;;;;;12.13;6.07;;;;;;;17.37;100.00;99165.44;12199167;19;20023;-85
2023/08/27 04:58:08;;;;;;;11.23;5.40;;;;;;;17.40;100.00;99150.06;12214125;19;20017;-85
2023/08/27 05:02:12;;;;;;;15.38;5.20;;;;;;;17.42;100.00;99145.00;12216400;19;20019;-85
2023/08/27 05:06:13;;;;;;;10.85;5.70;;;;;;;17.43;100.00;99138.28;12190848;19;20015;-85
2023/08/27 05:10:15;;;;;;;11.03;4.57;;;;;;;17.42;100.00;99134.69;12215099;19;20043;-85
2023/08/27 05:14:18;;;;;;;11.83;6.20;;;;;;;17.46;100.00;99155.22;12216075;19;20039;-85
2023/08/27 05:18:19;;;;;;;9.57;5.73;;;;;;;17.49;100.00;99173.25;12192635;19;20314;-85
2023/08/27 05:22:22;;;;;;;15.13;5.40;;;;;;;17.57;100.00;99163.34;12213714;19;20496;-85
2023/08/27 05:26:24;;;;;;;13.27;6.43;;;;;;;17.61;100.00;99156.84;12214135;19;20010;-84
2023/08/27 05:30:26;;;;;;;8.23;4.80;;;;;;;17.64;100.00;99152.59;12188932;19;20011;-85
2023/08/27 05:34:28;;;;;;;12.77;5.57;;;;;;;17.71;100.00;99156.63;12216732;19;20021;-85
2023/08/27 05:38:30;;;;;;;13.23;7.32;;;;;;;17.82;100.00;99154.47;12211857;19;20025;-85
2023/08/27 05:42:32;;;;;;;13.30;5.97;;;;;;;17.94;100.00;99137.19;12190152;19;20018;-85
2023/08/27 05:46:34;;;;;;;10.23;5.57;;;;;;;18.04;100.00;99134.16;12208890;19;20006;-84
2023/08/27 05:50:36;;;;;;;10.57;5.75;;;;;;;18.18;100.00;99126.56;12219151;19;20263;-84
2023/08/27 05:54:38;;;;;;;8.67;5.37;;;;;;;18.30;100.00;99127.94;12202144;19;20368;-84
2023/08/27 05:58:40;;;;;;;11.30;5.35;;;;;;;18.38;100.00;99132.75;12222047;19;20498;-84
2023/08/27 06:02:43;;;;;;;;;;;;;;;18.45;100.00;99138.72;12219770;19;20078;-85
2023/08/27 06:06:45;;;;;;;14.27;7.07;;;;;;;18.62;100.00;99144.41;12191971;19;19914;-85
2023/08/27 06:10:47;;;;;;;15.97;8.30;;;;;;;18.72;100.00;99132.13;12215691;19;20503;-85
2023/08/27 06:14:49;;;;;;;14.03;8.90;;;;;;;18.86;100.00;99104.97;12213211;19;20011;-86
2023/08/27 06:18:51;;;;;;;11.50;7.83;;;;;;;18.99;100.00;99108.00;12193324;19;20023;-85
2023/08/27 06:22:52;;;;;;;12.70;8.15;;;;;;;19.05;100.00;99103.91;12215789;19;20011;-85
2023/08/27 06:26:55;;;;;;;20.95;8.18;;;;;;;19.06;100.00;99113.91;12192015;19;20346;-85
2023/08/27 06:30:58;;;;;;;15.18;9.48;;;;;;;18.94;100.00;99145.22;12213624;19;20011;-86
2023/08/27 06:35:01;;;;;;;12.70;7.78;;;;;;;18.89;100.00;99142.59;12213397;19;20037;-85
2023/08/27 06:39:04;;;;;;;14.40;8.05;;;;;;;18.92;100.00;99136.38;12190399;19;20098;-85
2023/08/27 06:43:05;;;;;;;14.00;8.40;;;;;;;18.86;100.00;99137.66;12212045;19;20034;-85
2023/08/27 06:47:09;;;;;;;15.27;8.95;;;;;;;18.74;100.00;99162.53;12211736;19;20814;-85
2023/08/27 06:51:11;;;;;;;14.97;9.03;;;;;;;18.74;100.00;99162.53;12191253;19;20013;-85
2023/08/27 06:55:13;;;;;;;13.15;8.00;;;;;;;18.79;100.00;99154.84;12210849;19;20014;-85
2023/08/27 06:59:16;;;;;;;11.80;7.25;;;;;;;18.94;100.00;99159.19;12224447;19;20474;-85
2023/08/27 07:03:19;;;;;;;20.60;9.05;;;;;;;19.05;100.00;99168.94;12214418;19;20187;-85
2023/08/27 07:07:21;;;;;;;12.60;9.10;;;;;;;19.21;100.00;99171.28;12233760;19;20030;-86
2023/08/27 07:11:23;;;;;;;13.23;7.13;;;;;;;19.42;100.00;99179.91;12233597;19;20018;-85
2023/08/27 07:15:25;;;;;;;11.75;7.45;;;;;;;19.62;100.00;99186.88;12208539;19;20077;-85
2023/08/27 07:19:27;;;;;;;10.00;7.50;;;;;;;19.85;100.00;99187.63;12233038;19;20014;-85
2023/08/27 07:23:32;;;;;;;11.77;7.97;;;;;;;20.07;100.00;99178.25;12233064;19;20015;-85
2023/08/27 07:27:34;;;;;;;12.43;7.73;;;;;;;20.34;100.00;99171.50;12210383;19;20017;-85
2023/08/27 07:31:36;;;;;;;12.30;7.37;;;;;;;20.63;100.00;99151.25;12232299;19;20011;-85
2023/08/27 07:35:38;;;;;;;13.30;8.40;;;;;;;20.77;100.00;99160.28;12229495;19;20010;-85
2023/08/27 07:39:40;;;;;;;14.37;8.13;;;;;;;20.87;100.00;99157.09;12209889;19;20014;-85
2023/08/27 07:43:42;;;;;;;12.95;7.80;;;;;;;20.85;100.00;99159.44;12230881;19;20031;-85
2023/08/27 07:47:44;;;;;;;14.07;8.00;;;;;;;20.90;100.00;99172.41;12231890;19;20036;-86
2023/08/27 07:51:46;;;;;;;17.50;9.50;;;;;;;20.87;100.00;99179.50;12206803;19;20799;-85
2023/08/27 07:55:50;;;;;;;14.73;8.48;;;;;;;20.89;100.00;99185.59;12228535;19;20077;-85
2023/08/27 07:59:56;;;;;;;17.17;13.95;;;;;;;20.94;100.00;99165.81;12212320;19;20485;-85
2023/08/27 08:03:58;;;;;;;13.57;8.07;;;;;;;21.03;100.00;99178.94;12233185;19;20007;-86
2023/08/27 08:08:00;;;;;;;15.20;8.50;;;;;;;21.09;100.00;99172.84;12231911;19;20014;-85
2023/08/27 08:12:02;;;;;;;14.05;8.63;;;;;;;21.03;100.00;99184.56;12194952;19;20078;-86
2023/08/27 08:16:04;;;;;;;20.20;8.90;;;;;;;21.00;100.00;99207.63;12218042;19;20106;-85
2023/08/27 08:20:07;;;;;;;20.00;9.32;;;;;;;20.93;100.00;99217.38;12219042;19;20689;-85
2023/08/27 08:24:09;;;;;;;16.58;8.80;;;;;;;20.90;100.00;99226.44;12197893;19;21713;-85
2023/08/27 08:28:11;;;;;;;15.67;8.90;;;;;;;20.92;100.00;99228.91;12219804;19;20003;-85
2023/08/27 08:32:13;;;;;;;15.83;9.13;;;;;;;21.04;100.00;99206.66;12217659;19;20018;-85
2023/08/27 08:36:15;;;;;;;17.40;9.63;;;;;;;21.26;100.00;99197.16;12192723;19;20619;-85
2023/08/27 08:40:18;;;;;;;16.42;10.10;;;;;;;21.52;100.00;99218.69;12216010;19;20010;-85
2023/08/27 08:44:33;;;;;;;15.30;9.88;;;;;;;21.97;100.00;99201.25;12216504;19;20010;-85
2023/08/27 08:48:39;;;;;;;17.33;9.80;;;;;;;22.37;100.00;99201.66;12195254;19;20503;-85
2023/08/27 08:52:44;;;;;;;21.05;10.57;;;;;;;22.87;100.00;99185.78;12214688;19;20692;-85
2023/08/27 08:56:52;;;;;;;17.75;9.60;;;;;;;23.49;100.00;99210.03;12216654;19;20014;-86
2023/08/27 09:00:55;;;;;;;14.88;9.18;;;;;;;23.46;100.00;99210.75;12196322;19;20070;-86
2023/08/27 09:04:57;;;;;;;17.77;9.50;;;;;;;23.57;100.00;99220.34;12215335;19;20010;-86
2023/08/27 09:09:00;;;;;;;18.15;8.30;;;;;;;23.64;99.40;99211.34;12191864;19;20013;-85
2023/08/27 09:13:05;;;;;;;17.17;8.90;;;;;;;23.70;98.31;99192.25;12213630;19;20400;-85
2023/08/27 09:17:07;;;;;;;11.95;7.45;;;;;;;23.87;96.02;99186.38;12216257;19;20003;-86
2023/08/27 09:21:09;;;;;;;11.88;7.13;;;;;;;24.44;89.57;99198.59;12193242;19;20027;-86
2023/08/27 09:25:11;;;;;;;11.55;6.78;;;;;;;24.69;88.11;99190.84;12214026;19;20420;-84
2023/08/27 09:29:15;;;;;;;12.57;6.40;;;;;;;24.85;87.85;99197.34;12212001;19;20070;-85
2023/08/27 09:33:16;;;;;;;12.25;7.32;;;;;;;24.69;86.30;99205.78;12199802;19;20027;-84
2023/08/27 09:37:19;;;;;;;9.02;6.13;;;;;;;24.50;87.62;99200.78;12220074;19;20027;-84
2023/08/27 09:41:20;;;;;;;12.18;9.15;;;;;;;24.40;87.52;99189.19;12212830;19;20089;-85
2023/08/27 09:45:22;;;;;;;11.57;8.03;;;;;;;24.18;88.63;99156.75;12194961;19;20019;-84
2023/08/27 09:49:26;;;;;;;10.87;7.10;;;;;;;23.94;91.30;99140.75;12214108;19;20339;-85
2023/08/27 09:53:28;;;;;;;10.07;6.70;;;;;;;23.78;92.07;99137.88;12215332;19;20771;-85
2023/08/27 09:57:30;;;;;;;8.03;6.40;;;;;;;23.79;92.37;99131.88;12193144;19;20096;-84
2023/08/27 10:01:34;;;;;;;11.23;5.28;;;;;;;23.83;89.89;99137.63;12215078;19;20242;-85
2023/08/27 10:05:36;;;;;;;7.32;4.78;;;;;;;23.84;84.72;99130.81;12213741;19;20022;-85
2023/08/27 10:09:38;;;;;;;5.78;3.92;;;;;;;23.97;83.56;99126.78;12192204;19;20019;-86
2023/08/27 10:13:42;;;;;;;7.43;5.43;;;;;;;24.05;80.84;99128.66;12210429;19;20014;-85
2023/08/27 10:17:45;;;;;;;9.18;4.55;;;;;;;24.18;80.41;99123.78;12213506;19;20031;-85
2023/08/27 10:21:48;;;;;;;8.88;4.65;;;;;;;24.54;78.67;99136.94;12190900;19;20007;-85
2023/08/27 10:25:52;;;;;;;6.38;3.58;;;;;;;24.78;74.11;99133.16;12213201;19;20031;-85
2023/08/27 10:29:55;;;;;;;6.30;3.90;;;;;;;25.00;72.81;99131.72;12208147;19;20114;-84
2023/08/27 10:33:57;;;;;;;5.82;3.10;;;;;;;25.31;71.22;99113.19;12207509;19;20006;-85
2023/08/27 10:37:59;;;;;;;5.13;3.00;;;;;;;25.58;67.97;99108.63;12207406;19;20053;-84
2023/08/27 10:42:04;;;;;;;4.65;3.15;;;;;;;25.78;67.68;99123.56;12189955;19;20007;-85
2023/08/27 10:46:10;;;;;;;7.15;2.83;;;;;;;25.73;68.72;99123.88;12210422;19;20045;-85
2023/08/27 10:50:21;;;;;;;5.38;2.10;;;;;;;25.64;64.74;99114.75;12209670;19;20134;-84
2023/08/27 10:54:26;;;;;;;3.83;2.35;;;;;;;25.57;63.77;99111.78;12188332;19;20021;-84
2023/08/27 10:58:27;;;;;;;7.28;2.92;;;;;;;25.55;63.22;99109.34;12210504;19;20217;-85
2023/08/27 11:02:58;;;;;;;6.35;2.17;;;;;;;25.43;62.62;99109.44;12225229;19;20010;-85
2023/08/27 11:07:11;;;;;;;6.25;2.85;;;;;;;25.44;62.66;99113.91;12188924;19;20354;-85
2023/08/27 11:11:13;;;;;;;4.68;2.33;;;;;;;25.72;64.25;99116.56;12210244;19;20019;-85
2023/08/27 11:15:16;;;;;;;3.03;1.88;;;;;;;25.86;62.29;99124.59;12186128;19;20039;-86
2023/08/27 11:19:30;;;;;;;3.42;2.22;;;;;;;25.83;61.71;99128.97;12210261;19;20007;-85
2023/08/27 11:23:36;;;;;;;3.65;2.35;;;;;;;25.82;59.99;99120.84;12205437;19;20514;-85
2023/08/27 11:27:38;;;;;;;5.18;3.15;;;;;;;25.72;63.08;99115.75;12186826;19;20015;-84
2023/08/27 11:31:41;;;;;;;;;;;;;;;25.65;63.93;99094.66;12206365;19;20007;-84
2023/08/27 11:35:43;;;;;;;6.22;3.08;;;;;;;25.65;63.26;99093.84;12206222;19;19918;-85
2023/08/27 11:39:45;;;;;;;5.63;3.23;;;;;;;25.57;63.02;99098.50;12182471;19;20114;-84
2023/08/27 11:43:53;;;;;;;4.90;2.70;;;;;;;25.32;64.40;99091.47;12210595;19;20803;-85
2023/08/27 11:47:55;;;;;;;11.73;3.40;;;;;;;24.70;64.46;99094.72;12205958;19;20014;-85
2023/08/27 11:51:58;;;;;;;;;;;;;;;24.21;67.92;99080.03;12218210;19;20029;-85
2023/08/27 11:56:00;;;;;;;8.52;3.60;;;;;;;23.81;70.82;99086.53;12225713;19;19907;-85
2023/08/27 12:00:11;;;;;;;6.15;3.45;;;;;;;23.29;71.65;99090.09;12199445;19;20035;-86
2023/08/27 12:04:13;;;;;;;4.22;2.78;;;;;;;22.89;75.35;99114.03;12219424;19;20019;-85
2023/08/27 12:08:15;;;;;;;;;;;;;;;22.45;80.02;99121.31;12218825;19;20014;-83
2023/08/27 12:12:17;;;;;;;8.45;2.80;;;;;;;22.39;79.57;99125.50;12191240;19;19986;-84
2023/08/27 12:16:39;;;;;;;4.27;2.20;;;;;;;22.41;78.58;99120.38;12221208;19;20011;-84
2023/08/27 12:20:41;;;;;;;6.27;2.33;;;;;;;22.29;78.15;99123.97;12218567;19;20470;-85
2023/08/27 12:24:44;;;;;;;4.23;2.63;;;;;;;22.26;79.57;99130.25;12195504;19;20015;-84
2023/08/27 12:28:52;;;;;;;6.45;3.00;;;;;;;22.36;80.34;99129.00;12214602;19;20125;-84
2023/08/27 12:32:54;;;;;;;5.60;2.53;;;;;;;22.61;79.53;99104.66;12207256;19;20087;-84
2023/08/27 12:36:56;;;;;;;3.58;2.53;;;;;;;22.96;74.53;99110.69;12215484;19;20501;-85
2023/08/27 12:40:58;;;;;;;2.47;1.43;;;;;;;23.77;69.64;99094.88;12212536;19;20011;-85
2023/08/27 12:45:00;;;;;;;3.53;2.50;;;;;;;24.25;65.22;99095.06;12190238;19;20416;-84
2023/08/27 12:49:04;;;;;;;4.22;2.38;;;;;;;24.76;66.40;99103.72;12212447;19;20031;-85
2023/08/27 12:53:06;;;;;;;3.33;2.20;;;;;;;25.05;62.04;99101.66;12212980;19;20047;-84
2023/08/27 12:57:08;;;;;;;3.40;1.90;;;;;;;25.18;60.71;99101.19;12189382;19;20272;-82
2023/08/27 13:01:09;;;;;;;3.85;1.90;;;;;;;25.05;62.23;99105.28;12215993;19;20003;-85
2023/08/27 13:05:11;;;;;;;2.42;1.85;;;;;;;24.81;62.58;99108.25;12212161;19;20011;-83
2023/08/27 13:09:15;;;;;;;3.57;1.50;;;;;;;24.79;60.90;99114.25;12191664;19;20057;-83
2023/08/27 13:13:18;;;;;;;2.42;1.73;;;;;;;24.76;62.12;99109.34;12214754;19;20235;-82
2023/08/27 13:17:21;;;;;;;4.80;1.40;;;;;;;24.67;61.08;99119.97;12212465;19;20018;-82
2023/08/27 13:21:23;;;;;;;2.75;1.30;;;;;;;24.41;61.82;99120.44;12190368;19;20023;-84
2023/08/27 13:25:25;;;;;;;2.73;1.47;;;;;;;24.37;62.29;99123.16;12210940;19;20066;-83
2023/08/27 13:29:26;;;;;;;2.77;1.20;;;;;;;24.24;61.29;99116.75;12213223;19;20260;-82
2023/08/27 13:33:28;;;;;;;1.90;1.08;;;;;;;24.29;59.58;99130.56;12191947;19;20011;-83
2023/08/27 13:37:30;;;;;;;2.27;1.27;;;;;;;24.34;59.30;99138.75;12210247;19;20408;-84
2023/08/27 13:41:36;;;;;;;2.77;1.13;;;;;;;24.39;59.08;99136.84;12211057;19;20252;-85
2023/08/27 13:45:39;;;;;;;3.05;1.40;;;;;;;24.63;59.27;99135.94;12190015;19;20007;-83
2023/08/27 13:49:40;;;;;;;2.03;1.25;;;;;;;24.88;58.96;99136.63;12213909;19;20936;-84
2023/08/27 13:53:42;;;;;;;4.13;1.70;;;;;;;24.66;60.10;99138.03;12219966;19;20031;-85
2023/08/27 13:57:46;;;;;;;2.97;1.50;;;;;;;24.73;59.69;99129.78;12189383;19;20006;-86
2023/08/27 14:01:48;;;;;;;3.60;1.40;;;;;;;25.08;60.46;99129.09;12212459;19;20014;-85
2023/08/27 14:05:50;;;;;;;2.70;1.40;;;;;;;25.16;58.02;99123.28;12210905;19;20025;-83
2023/08/27 14:09:52;;;;;;;5.03;1.58;;;;;;;25.08;58.71;99115.00;12188034;19;20010;-85
2023/08/27 14:13:54;;;;;;;5.47;1.70;;;;;;;25.05;59.79;99104.47;12219222;19;20462;-84
2023/08/27 14:17:56;;;;;;;4.37;1.87;;;;;;;25.11;59.58;99109.47;12190385;19;20360;-84
2023/08/27 14:21:57;;;;;;;4.35;2.20;;;;;;;25.31;58.66;99107.53;12209827;19;20010;-84
2023/08/27 14:26:00;;;;;;;4.43;1.57;;;;;;;25.25;59.15;99114.66;12210023;19;20664;-86
2023/08/27 14:30:02;;;;;;;4.57;2.00;;;;;;;25.15;59.75;99109.56;12187822;19;20331;-84
2023/08/27 14:34:08;;;;;;;3.80;1.73;;;;;;;24.99;59.75;99107.56;12216900;19;20031;-86
2023/08/27 14:38:10;;;;;;;3.33;2.08;;;;;;;24.90;61.55;99108.91;12208136;19;20049;-85
2023/08/27 14:42:11;;;;;;;4.35;2.10;;;;;;;24.75;63.79;99105.72;12186978;19;20089;-84
2023/08/27 14:46:13;;;;;;;5.10;1.83;;;;;;;24.49;64.06;99102.59;12207237;19;20011;-85
2023/08/27 14:50:18;;;;;;;3.57;1.80;;;;;;;24.11;66.37;99109.53;12209597;19;20014;-84
2023/08/27 14:54:20;;;;;;;4.60;1.88;;;;;;;23.72;67.70;99111.16;12186965;19;20227;-83
2023/08/27 14:58:22;;;;;;;7.15;2.38;;;;;;;23.54;68.86;99111.41;12208856;19;20427;-84
2023/08/27 15:02:23;;;;;;;4.10;2.10;;;;;;;23.49;70.13;99119.25;12209227;19;20671;-84
2023/08/27 15:06:25;;;;;;;6.13;2.38;;;;;;;23.41;70.63;99118.22;12185397;19;20007;-84
2023/08/27 15:10:27;;;;;;;3.42;2.30;;;;;;;23.33;71.88;99121.97;12208250;19;20018;-85
2023/08/27 15:14:29;;;;;;;4.43;2.20;;;;;;;23.29;72.54;99119.03;12208688;19;20415;-85
2023/08/27 15:18:31;;;;;;;4.07;2.20;;;;;;;23.28;73.67;99122.19;12189294;19;20025;-85
2023/08/27 15:22:32;;;;;;;6.37;2.50;;;;;;;23.25;75.14;99132.13;12220283;19;20264;-84
2023/08/27 15:26:34;;;;;;;3.40;2.07;;;;;;;23.30;76.14;99123.47;12217772;19;20027;-85
2023/08/27 15:30:37;;;;;;;7.43;2.13;;;;;;;23.51;74.60;99128.97;12199215;19;20018;-84
2023/08/27 15:34:39;;;;;;;6.15;2.30;;;;;;;23.72;74.13;99122.41;12225253;19;20277;-83
2023/08/27 15:38:41;;;;;;;6.35;2.42;;;;;;;23.85;71.85;99136.09;12221056;19;20062;-83
2023/08/27 15:42:44;;;;;;;5.75;1.95;;;;;;;23.90;69.51;99128.59;12201269;19;20011;-85
2023/08/27 15:46:45;;;;;;;2.80;1.70;;;;;;;23.97;68.56;99125.97;12230560;19;20014;-85
2023/08/27 15:50:48;;;;;;;3.08;1.63;;;;;;;23.96;66.67;99132.78;12233383;19;20016;-84
2023/08/27 15:54:49;;;;;;;3.03;1.35;;;;;;;23.79;62.48;99122.63;12224821;19;20467;-86
2023/08/27 15:58:51;;;;;;;4.37;1.20;;;;;;;23.64;61.31;99126.97;12229682;19;20002;-86
2023/08/27 16:02:53;;;;;;;2.83;1.33;;;;;;;23.46;58.96;99123.56;12226897;19;20763;-86
2023/08/27 16:06:55;;;;;;;1.65;1.10;;;;;;;23.32;60.89;99129.59;12200992;19;20110;-86
2023/08/27 16:10:57;;;;;;;2.23;1.23;;;;;;;23.18;59.70;99131.91;12222702;19;20079;-84
2023/08/27 16:14:59;;;;;;;2.70;1.20;;;;;;;23.04;59.14;99125.81;12204536;19;20007;-85
2023/08/27 16:19:00;;;;;;;3.93;1.60;;;;;;;23.01;60.35;99140.56;12223883;19;20020;-85
2023/08/27 16:23:02;;;;;;;3.47;1.50;;;;;;;22.89;59.75;99141.31;12221425;19;20014;-84
2023/08/27 16:27:04;;;;;;;3.97;1.77;;;;;;;22.81;59.80;99131.81;12204589;19;20267;-87
2023/08/27 16:31:06;;;;;;;3.47;1.40;;;;;;;22.79;59.57;99138.97;12217231;19;20962;-85
2023/08/27 16:35:08;;;;;;;2.08;1.15;;;;;;;22.66;60.40;99138.91;12219801;19;20032;-84
2023/08/27 16:39:10;;;;;;;3.45;1.48;;;;;;;22.55;61.43;99134.94;12193876;19;20019;-85
2023/08/27 16:43:13;;;;;;;4.30;1.40;;;;;;;22.39;61.46;99136.72;12228073;19;20023;-86
2023/08/27 16:47:14;;;;;;;;;;;;;;;22.26;63.07;99144.28;12227185;19;20010;-85
2023/08/27 16:51:16;;;;;;;2.95;1.23;;;;;;;22.14;63.05;99147.81;12195628;19;19934;-84
2023/08/27 16:55:18;;;;;;;4.27;1.30;;;;;;;21.99;63.24;99142.84;12222339;19;20011;-86
2023/08/27 16:59:20;;;;;;;2.45;1.05;;;;;;;21.95;64.19;99144.66;12216405;19;20034;-84
2023/08/27 17:03:23;;;;;;;2.47;1.20;;;;;;;21.88;64.45;99147.22;12194874;19;20050;-84
2023/08/27 17:07:25;;;;;;;2.85;1.27;;;;;;;21.72;65.71;99150.63;12214331;19;20007;-85
2023/08/27 17:11:26;;;;;;;3.77;1.30;;;;;;;21.55;66.59;99150.72;12214405;19;20015;-84
2023/08/27 17:15:28;;;;;;;3.10;1.23;;;;;;;21.49;66.98;99152.09;12199537;19;20014;-86
2023/08/27 17:19:30;;;;;;;4.40;1.23;;;;;;;21.44;68.73;99160.69;12213878;19;20014;-84
2023/08/27 17:23:32;;;;;;;3.33;1.27;;;;;;;21.33;69.37;99152.63;12216283;19;20488;-84
2023/08/27 17:27:33;;;;;;;2.27;1.07;;;;;;;21.23;70.13;99161.41;12189857;19;20102;-85
2023/08/27 17:31:35;;;;;;;2.87;1.33;;;;;;;21.13;70.38;99164.59;12214212;19;20014;-85
2023/08/27 17:35:39;;;;;;;4.30;1.83;;;;;;;21.06;71.56;99161.47;12219772;19;20026;-86
2023/08/27 17:39:40;;;;;;;2.75;1.42;;;;;;;20.98;72.01;99156.75;12192114;19;20009;-85
2023/08/27 17:43:42;;;;;;;4.97;1.83;;;;;;;20.90;73.70;99162.03;12214267;19;20081;-86
2023/08/27 17:47:44;;;;;;;2.30;1.23;;;;;;;20.82;72.97;99159.25;12214504;19;20517;-84
2023/08/27 17:51:46;;;;;;;1.88;1.17;;;;;;;20.81;74.07;99166.84;12194225;19;20039;-84
2023/08/27 17:55:50;;;;;;;4.32;1.08;;;;;;;20.85;74.59;99165.03;12214484;19;20011;-84
2023/08/27 17:59:54;;;;;;;2.05;1.15;;;;;;;20.86;75.46;99171.44;12206776;19;20003;-84
2023/08/27 18:03:56;;;;;;;3.35;1.48;;;;;;;20.84;76.10;99166.16;12215878;19;20513;-84
2023/08/27 18:07:58;;;;;;;3.17;1.55;;;;;;;20.81;75.81;99166.84;12213946;19;20077;-85
2023/08/27 18:12:00;;;;;;;3.00;1.52;;;;;;;20.77;76.80;99179.06;12191369;19;20355;-84
2023/08/27 18:16:02;;;;;;;3.05;1.27;;;;;;;20.66;77.38;99181.38;12220389;19;20011;-85
2023/08/27 18:20:04;;;;;;;2.50;1.80;;;;;;;20.64;77.63;99186.47;12214366;19;20073;-84
2023/08/27 18:24:07;;;;;;;2.45;1.30;;;;;;;20.53;78.79;99186.00;12192920;19;20014;-84
2023/08/27 18:28:09;;;;;;;3.30;1.30;;;;;;;20.42;80.32;99188.28;12212857;19;20665;-84
2023/08/27 18:32:11;;;;;;;4.13;1.77;;;;;;;20.37;80.61;99210.81;12215676;19;20029;-84
2023/08/27 18:36:13;;;;;;;2.65;1.50;;;;;;;20.27;82.15;99217.59;12195059;19;20018;-84
2023/08/27 18:40:15;;;;;;;3.80;1.45;;;;;;;20.19;82.35;99223.16;12210643;19;20027;-84